createdAt,value
2018-01-16T00:02:13.024Z,83.10
2018-01-16T00:04:40.579Z,83.10
2018-01-16T00:07:08.207Z,83.00
2018-01-16T00:09:36.181Z,82.60
2018-01-16T00:12:04.163Z,82.70
2018-01-16T00:14:32.252Z,82.70
2018-01-16T00:16:59.901Z,82.70
2018-01-16T00:19:27.888Z,82.90
2018-01-16T00:21:55.756Z,82.90
2018-01-16T00:24:23.312Z,82.70
2018-01-16T00:26:51.405Z,82.40
2018-01-16T00:29:19.257Z,82.40
2018-01-16T00:31:47.256Z,82.10
2018-01-16T00:34:14.831Z,82.10
2018-01-16T00:36:42.432Z,81.90
2018-01-16T00:39:09.995Z,81.80
2018-01-16T00:41:37.586Z,81.70
2018-01-16T00:44:05.581Z,81.70
2018-01-16T00:46:33.207Z,81.70
2018-01-16T00:49:00.922Z,81.60
2018-01-16T00:51:28.507Z,81.30
2018-01-16T00:53:56.076Z,81.30
2018-01-16T00:56:23.651Z,81.50
2018-01-16T00:58:51.481Z,81.20
2018-01-16T01:01:19.161Z,81.10
2018-01-16T01:03:46.759Z,80.90
2018-01-16T01:06:14.431Z,80.40
2018-01-16T01:08:42.020Z,80.30
2018-01-16T01:11:10.070Z,79.40
2018-01-16T01:13:37.670Z,79.40
2018-01-16T01:16:05.672Z,78.50
2018-01-16T01:18:33.272Z,78.50
2018-01-16T01:21:00.835Z,77.90
2018-01-16T01:23:28.582Z,77.40
2018-01-16T01:25:56.182Z,77.00
2018-01-16T01:28:23.783Z,76.70
2018-01-16T01:30:51.374Z,76.00
2018-01-16T01:33:18.936Z,76.20
2018-01-16T01:35:46.619Z,75.20
2018-01-16T01:38:15.283Z,74.00
2018-01-16T01:40:42.911Z,74.00
2018-01-16T01:43:11.072Z,74.80
2018-01-16T01:45:38.661Z,74.80
2018-01-16T01:48:06.887Z,75.50
2018-01-16T01:50:34.499Z,75.40
2018-01-16T01:53:02.498Z,75.90
2018-01-16T01:55:30.057Z,75.90
2018-01-16T01:57:57.658Z,76.10
2018-01-16T02:00:25.232Z,76.00
2018-01-16T02:02:52.806Z,75.90
2018-01-16T02:05:20.519Z,76.00
2018-01-16T02:07:48.103Z,75.80
2018-01-16T02:10:15.701Z,75.90
2018-01-16T02:12:43.414Z,76.10
2018-01-16T02:15:11.062Z,76.00
2018-01-16T02:17:39.123Z,75.60
2018-01-16T02:20:06.719Z,75.60
2018-01-16T02:22:34.290Z,75.00
2018-01-16T02:25:01.916Z,75.10
2018-01-16T02:27:29.512Z,75.10
2018-01-16T02:29:57.120Z,75.00
2018-01-16T02:32:24.723Z,74.90
2018-01-16T02:34:52.713Z,74.80
2018-01-16T02:37:20.598Z,74.80
2018-01-16T02:39:48.238Z,74.80
2018-01-16T02:42:16.285Z,74.80
2018-01-16T02:44:43.910Z,74.70
2018-01-16T02:47:11.583Z,74.60
2018-01-16T02:49:39.150Z,74.60
2018-01-16T02:52:06.715Z,74.60
2018-01-16T02:54:34.308Z,74.70
2018-01-16T02:57:01.902Z,74.80
2018-01-16T02:59:29.841Z,75.00
2018-01-16T03:01:57.408Z,75.00
2018-01-16T03:04:25.198Z,74.90
2018-01-16T03:06:52.769Z,74.60
2018-01-16T03:09:20.813Z,74.80
2018-01-16T03:11:48.402Z,74.80
2018-01-16T03:14:17.898Z,75.80
2018-01-16T03:16:45.451Z,75.80
2018-01-16T03:19:13.020Z,76.20
2018-01-16T03:21:40.690Z,77.10
2018-01-16T03:24:08.699Z,77.70
2018-01-16T03:26:36.299Z,77.70
2018-01-16T03:29:04.124Z,78.20
2018-01-16T03:31:32.079Z,78.10
2018-01-16T03:33:59.685Z,78.10
2018-01-16T03:36:27.288Z,78.40
2018-01-16T03:38:54.875Z,78.40
2018-01-16T03:41:22.544Z,78.50
2018-01-16T03:43:50.587Z,78.40
2018-01-16T03:46:18.236Z,78.30
2018-01-16T03:48:46.657Z,78.00
2018-01-16T03:51:14.248Z,78.30
2018-01-16T03:53:42.289Z,78.40
2018-01-16T03:56:09.883Z,78.40
2018-01-16T03:58:38.003Z,78.10
2018-01-16T04:01:05.699Z,78.10
2018-01-16T04:03:33.255Z,78.10
2018-01-16T04:06:00.965Z,78.00
2018-01-16T04:08:29.074Z,77.70
2018-01-16T04:10:56.632Z,77.70
2018-01-16T04:13:24.227Z,77.50
2018-01-16T04:15:51.803Z,77.80
2018-01-16T04:18:19.359Z,77.50
2018-01-16T04:20:47.009Z,77.60
2018-01-16T04:23:14.587Z,77.40
2018-01-16T04:25:42.703Z,77.30
2018-01-16T04:28:10.308Z,77.00
2018-01-16T04:30:37.857Z,76.50
2018-01-16T04:33:05.467Z,76.90
2018-01-16T04:35:33.147Z,76.90
2018-01-16T04:38:00.730Z,76.90
2018-01-16T04:40:28.778Z,77.00
2018-01-16T04:42:56.364Z,77.00
2018-01-16T04:45:24.332Z,76.90
2018-01-16T04:47:52.359Z,77.00
2018-01-16T04:50:19.968Z,77.00
2018-01-16T04:52:47.558Z,76.90
2018-01-16T04:55:15.132Z,77.10
2018-01-16T04:57:43.148Z,77.10
2018-01-16T05:00:10.743Z,77.30
2018-01-16T05:02:38.293Z,77.40
2018-01-16T05:05:05.862Z,77.50
2018-01-16T05:07:33.471Z,77.90
2018-01-16T05:10:01.051Z,78.00
2018-01-16T05:12:28.942Z,78.40
2018-01-16T05:14:56.493Z,78.70
2018-01-16T05:17:24.097Z,79.00
2018-01-16T05:19:52.721Z,79.70
2018-01-16T05:22:20.332Z,79.70
2018-01-16T05:24:48.004Z,80.00
2018-01-16T05:27:15.574Z,79.90
2018-01-16T05:29:43.573Z,80.00
2018-01-16T05:32:11.288Z,80.00
2018-01-16T05:34:38.883Z,80.00
2018-01-16T05:37:06.559Z,80.00
2018-01-16T05:39:34.526Z,80.40
2018-01-16T05:42:02.160Z,80.40
2018-01-16T05:44:29.819Z,80.70
2018-01-16T05:46:57.577Z,80.60
2018-01-16T05:49:25.184Z,80.70
2018-01-16T05:51:52.790Z,80.70
2018-01-16T05:54:20.338Z,80.70
2018-01-16T05:56:48.391Z,80.50
2018-01-16T05:59:16.012Z,80.50
2018-01-16T06:01:43.564Z,80.50
2018-01-16T06:04:11.129Z,80.60
2018-01-16T06:06:38.800Z,80.60
2018-01-16T06:09:06.381Z,80.60
2018-01-16T06:11:33.997Z,80.40
2018-01-16T06:14:01.959Z,80.70
2018-01-16T06:16:29.540Z,80.70
2018-01-16T06:18:57.586Z,80.70
2018-01-16T06:21:25.157Z,80.70
2018-01-16T06:23:52.738Z,80.70
2018-01-16T06:26:20.707Z,80.50
2018-01-16T06:28:48.368Z,80.50
2018-01-16T06:31:16.359Z,80.10
2018-01-16T06:33:44.290Z,80.00
2018-01-16T06:36:11.880Z,80.00
2018-01-16T06:38:39.549Z,79.90
2018-01-16T06:41:07.188Z,79.60
2018-01-16T06:43:34.753Z,79.60
2018-01-16T06:46:02.355Z,79.40
2018-01-16T06:48:30.395Z,79.50
2018-01-16T06:50:57.975Z,79.50
2018-01-16T06:53:25.561Z,79.40
2018-01-16T06:55:53.507Z,79.00
2018-01-16T06:58:21.096Z,79.00
2018-01-16T07:00:49.033Z,78.10
2018-01-16T07:03:16.720Z,78.10
2018-01-16T07:05:44.683Z,77.60
2018-01-16T07:08:12.250Z,77.60
2018-01-16T07:10:39.945Z,77.10
2018-01-16T07:13:07.879Z,77.40
2018-01-16T07:15:35.481Z,77.40
2018-01-16T07:18:03.572Z,77.60
2018-01-16T07:20:31.172Z,77.60
2018-01-16T07:22:58.747Z,77.30
2018-01-16T07:25:26.295Z,77.10
2018-01-16T07:27:53.923Z,77.50
2018-01-16T07:30:21.979Z,77.50
2018-01-16T07:32:49.612Z,77.50
2018-01-16T07:35:17.325Z,77.70
2018-01-16T07:37:45.259Z,77.80
2018-01-16T07:40:12.806Z,77.80
2018-01-16T07:42:40.508Z,78.40
2018-01-16T07:45:08.060Z,78.30
2018-01-16T07:47:35.626Z,78.50
2018-01-16T07:50:03.206Z,78.40
2018-01-16T07:52:30.885Z,79.00
2018-01-16T07:54:58.815Z,79.70
2018-01-16T07:57:26.499Z,79.70
2018-01-16T07:59:54.056Z,79.80
2018-01-16T08:02:21.622Z,79.90
2018-01-16T08:04:49.163Z,79.90
2018-01-16T08:07:16.765Z,80.30
2018-01-16T08:09:44.772Z,79.90
2018-01-16T08:12:12.378Z,79.90
2018-01-16T08:14:39.930Z,79.90
2018-01-16T08:17:07.716Z,79.90
2018-01-16T08:19:35.259Z,80.00
2018-01-16T08:22:02.855Z,80.20
2018-01-16T08:24:30.453Z,80.50
2018-01-16T08:26:58.442Z,81.00
2018-01-16T08:29:26.024Z,80.90
2018-01-16T08:31:53.617Z,80.20
2018-01-16T08:34:21.299Z,80.30
2018-01-16T08:36:48.921Z,80.00
2018-01-16T08:39:16.515Z,79.70
2018-01-16T08:41:44.184Z,78.90
2018-01-16T08:44:12.268Z,79.10
2018-01-16T08:46:40.160Z,79.20
2018-01-16T08:49:08.336Z,78.40
2018-01-16T08:51:36.354Z,78.40
2018-01-16T08:54:03.899Z,78.40
2018-01-16T08:56:31.447Z,78.10
2018-01-16T08:58:59.409Z,77.60
2018-01-16T09:01:27.435Z,78.40
2018-01-16T09:03:55.084Z,78.40
2018-01-16T09:06:22.653Z,78.10
2018-01-16T09:08:50.234Z,78.20
2018-01-16T09:11:17.891Z,78.20
2018-01-16T09:13:46.860Z,78.20
2018-01-16T09:16:14.452Z,77.80
2018-01-16T09:18:42.058Z,77.60
2018-01-16T09:21:09.622Z,77.50
2018-01-16T09:23:37.285Z,76.70
2018-01-16T09:26:05.110Z,76.00
2018-01-16T09:28:32.662Z,76.60
2018-01-16T09:31:00.288Z,77.60
2018-01-16T09:33:27.863Z,77.80
2018-01-16T09:35:55.846Z,77.50
2018-01-16T09:38:23.996Z,77.70
2018-01-16T09:40:51.575Z,77.80
2018-01-16T09:43:19.176Z,77.70
2018-01-16T09:45:46.745Z,77.30
2018-01-16T09:48:14.305Z,77.70
2018-01-16T09:50:41.904Z,77.40
2018-01-16T09:53:09.594Z,77.00
2018-01-16T09:55:37.672Z,77.70
2018-01-16T09:58:05.635Z,78.00
2018-01-16T10:00:33.365Z,78.00
2018-01-16T10:03:00.936Z,78.00
2018-01-16T10:05:28.494Z,77.40
2018-01-16T10:07:56.045Z,77.60
2018-01-16T10:10:23.619Z,77.20
2018-01-16T10:12:51.286Z,77.50
2018-01-16T10:15:18.879Z,78.10
2018-01-16T10:17:46.465Z,78.20
2018-01-16T10:20:14.048Z,78.50
2018-01-16T10:22:41.993Z,79.00
2018-01-16T10:25:09.562Z,79.00
2018-01-16T10:27:37.110Z,79.30
2018-01-16T10:30:05.598Z,79.00
2018-01-16T10:32:33.149Z,79.50
2018-01-16T10:35:00.943Z,79.10
2018-01-16T10:37:28.552Z,77.20
2018-01-16T10:39:56.450Z,76.80
2018-01-16T10:42:24.061Z,75.80
2018-01-16T10:44:52.209Z,74.80
2018-01-16T10:47:20.597Z,74.90
2018-01-16T10:49:48.182Z,74.30
2018-01-16T10:52:16.145Z,73.30
2018-01-16T10:54:43.733Z,73.30
2018-01-16T10:57:11.727Z,73.30
2018-01-16T10:59:39.307Z,73.30
2018-01-16T11:02:06.901Z,72.80
2018-01-16T11:04:34.655Z,73.20
2018-01-16T11:07:02.216Z,73.00
2018-01-16T11:09:30.090Z,73.00
2018-01-16T11:11:57.647Z,72.60
2018-01-16T11:14:25.383Z,72.00
2018-01-16T11:16:53.008Z,72.20
2018-01-16T11:19:20.836Z,71.60
2018-01-16T11:21:48.606Z,72.00
2018-01-16T11:24:16.187Z,72.00
2018-01-16T11:26:43.829Z,69.60
2018-01-16T11:29:11.384Z,69.10
2018-01-16T11:31:38.968Z,69.90
2018-01-16T11:34:07.330Z,69.70
2018-01-16T11:36:35.154Z,69.90
2018-01-16T11:39:02.780Z,68.70
2018-01-16T11:41:30.385Z,68.60
2018-01-16T11:43:57.974Z,67.00
2018-01-16T11:46:25.934Z,65.60
2018-01-16T11:51:27.480Z,66.10
2018-01-16T11:53:55.063Z,64.60
2018-01-16T11:56:22.617Z,64.00
2018-01-16T11:58:50.573Z,64.90
2018-01-16T12:01:18.119Z,64.80
2018-01-16T12:03:45.720Z,65.20
2018-01-16T12:06:13.356Z,63.60
2018-01-16T12:08:40.954Z,62.90
2018-01-16T12:11:08.637Z,62.20
2018-01-16T12:13:37.044Z,62.30
2018-01-16T12:16:05.018Z,61.30
2018-01-16T12:18:32.979Z,61.10
2018-01-16T12:21:00.990Z,61.10
2018-01-16T12:23:28.524Z,61.10
2018-01-16T12:25:56.116Z,61.80
2018-01-16T12:28:23.750Z,61.90
2018-01-16T12:30:51.796Z,62.90
2018-01-16T12:33:19.356Z,62.90
2018-01-16T12:35:46.918Z,61.80
2018-01-16T12:38:14.634Z,60.70
2018-01-16T12:40:42.242Z,61.10
2018-01-16T12:43:09.806Z,61.30
2018-01-16T12:45:37.368Z,61.50
2018-01-16T12:48:04.935Z,59.70
2018-01-16T12:50:32.526Z,59.90
2018-01-16T12:53:00.094Z,60.30
2018-01-16T12:55:27.803Z,59.90
2018-01-16T12:57:55.457Z,59.80
2018-01-16T13:00:23.056Z,58.60
2018-01-16T13:02:50.635Z,59.10
2018-01-16T13:05:18.248Z,59.70
2018-01-16T13:07:47.593Z,60.00
2018-01-16T13:10:15.230Z,60.10
2018-01-16T13:12:42.909Z,60.70
2018-01-16T13:15:10.500Z,60.20
2018-01-16T13:17:38.234Z,60.30
2018-01-16T13:20:05.900Z,60.40
2018-01-16T13:22:33.510Z,61.70
2018-01-16T13:25:01.340Z,61.50
2018-01-16T13:27:28.948Z,61.00
2018-01-16T13:29:56.703Z,61.20
2018-01-16T13:32:24.260Z,60.20
2018-01-16T13:34:51.850Z,59.90
2018-01-16T13:37:19.456Z,59.50
2018-01-16T13:39:47.055Z,59.50
2018-01-16T13:42:14.687Z,59.50
2018-01-16T13:44:42.237Z,59.30
2018-01-16T13:47:10.185Z,59.80
2018-01-16T13:49:37.855Z,59.80
2018-01-16T13:52:05.443Z,59.80
2018-01-16T13:54:33.247Z,59.30
2018-01-16T13:57:00.859Z,59.20
2018-01-16T13:59:28.469Z,58.60
2018-01-16T14:01:56.332Z,58.60
2018-01-16T14:04:25.162Z,59.00
2018-01-16T14:06:52.801Z,59.60
2018-01-16T14:09:20.493Z,60.00
2018-01-16T14:11:48.110Z,60.70
2018-01-16T14:14:15.800Z,60.80
2018-01-16T14:16:43.587Z,61.30
2018-01-16T14:19:11.174Z,61.60
2018-01-16T14:21:38.893Z,61.60
2018-01-16T14:24:07.063Z,61.90
2018-01-16T14:26:34.750Z,61.90
2018-01-16T14:29:02.319Z,61.80
2018-01-16T14:31:30.123Z,62.00
2018-01-16T14:33:57.705Z,62.00
2018-01-16T14:36:25.662Z,61.70
2018-01-16T14:38:53.242Z,61.70
2018-01-16T14:41:21.273Z,61.90
2018-01-16T14:43:49.137Z,61.90
2018-01-16T14:46:16.928Z,61.70
2018-01-16T14:48:44.653Z,60.80
2018-01-16T14:51:12.235Z,61.20
2018-01-16T14:53:40.025Z,62.30
2018-01-16T14:56:07.649Z,63.30
2018-01-16T14:58:35.298Z,63.20
2018-01-16T15:01:02.954Z,63.80
2018-01-16T15:03:30.980Z,63.80
2018-01-16T15:05:58.774Z,63.90
2018-01-16T15:08:26.500Z,64.20
2018-01-16T15:10:54.151Z,64.30
2018-01-16T15:13:21.750Z,64.60
2018-01-16T15:15:49.397Z,65.10
2018-01-16T15:18:17.448Z,65.40
2018-01-16T15:20:45.142Z,65.80
2018-01-16T15:23:12.782Z,65.50
2018-01-16T15:25:40.702Z,65.50
2018-01-16T15:28:08.404Z,65.50
2018-01-16T15:30:36.408Z,65.90
2018-01-16T15:33:04.285Z,65.90
2018-01-16T15:35:31.884Z,65.50
2018-01-16T15:37:59.469Z,64.90
2018-01-16T15:40:27.047Z,64.60
2018-01-16T15:42:56.196Z,64.50
2018-01-16T15:45:23.757Z,64.50
2018-01-16T15:47:51.323Z,64.80
2018-01-16T15:50:18.857Z,65.20
2018-01-16T15:52:46.866Z,65.30
2018-01-16T15:55:14.415Z,65.30
2018-01-16T15:57:42.033Z,65.80
2018-01-16T16:00:09.586Z,65.80
2018-01-16T16:02:37.151Z,66.20
2018-01-16T16:05:04.732Z,66.70
2018-01-16T16:07:32.726Z,67.20
2018-01-16T16:10:00.666Z,67.40
2018-01-16T16:12:28.348Z,67.40
2018-01-16T16:14:55.916Z,67.90
2018-01-16T16:17:23.898Z,68.30
2018-01-16T16:19:51.823Z,68.50
2018-01-16T16:22:19.373Z,68.50
2018-01-16T16:24:47.025Z,68.70
2018-01-16T16:27:14.613Z,68.80
2018-01-16T16:29:42.237Z,69.10
2018-01-16T16:32:09.883Z,70.00
2018-01-16T16:34:37.467Z,70.40
2018-01-16T16:37:05.481Z,70.10
2018-01-16T16:39:33.091Z,70.10
2018-01-16T16:42:01.059Z,70.30
2018-01-16T16:44:28.824Z,70.30
2018-01-16T16:46:56.785Z,69.70
2018-01-16T16:49:24.816Z,69.70
2018-01-16T16:51:52.399Z,69.30
2018-01-16T16:54:20.046Z,69.00
2018-01-16T16:56:47.595Z,69.20
2018-01-16T16:59:15.285Z,69.20
2018-01-16T17:01:42.909Z,69.00
2018-01-16T17:04:10.879Z,68.00
2018-01-16T17:06:39.003Z,67.80
2018-01-16T17:09:06.860Z,67.80
2018-01-16T17:11:34.434Z,67.30
2018-01-16T17:14:02.011Z,67.40
2018-01-16T17:16:29.614Z,67.00
2018-01-16T17:18:57.157Z,66.70
2018-01-16T17:21:24.731Z,66.10
2018-01-16T17:23:52.547Z,66.10
2018-01-16T17:26:20.851Z,65.80
2018-01-16T17:28:48.458Z,65.70
2018-01-16T17:31:16.129Z,65.30
2018-01-16T17:33:44.080Z,64.60
2018-01-16T17:36:11.732Z,64.60
2018-01-16T17:38:39.304Z,64.60
2018-01-16T17:41:06.852Z,64.60
2018-01-16T17:43:34.547Z,64.90
2018-01-16T17:46:02.581Z,64.60
2018-01-16T17:48:30.202Z,64.60
2018-01-16T17:50:57.839Z,64.20
2018-01-16T17:53:25.427Z,64.30
2018-01-16T17:55:53.006Z,64.40
2018-01-16T17:58:21.661Z,64.40
2018-01-16T18:00:49.450Z,64.40
2018-01-16T18:03:17.028Z,64.10
2018-01-16T18:05:45.032Z,64.40
2018-01-16T18:08:12.566Z,64.40
2018-01-16T18:10:40.540Z,64.20
2018-01-16T18:13:08.571Z,64.30
2018-01-16T18:15:36.139Z,64.30
2018-01-16T18:18:04.171Z,64.30
2018-01-16T18:20:31.743Z,64.20
2018-01-16T18:22:59.293Z,64.30
2018-01-16T18:25:27.292Z,64.50
2018-01-16T18:27:54.862Z,64.50
2018-01-16T18:30:22.473Z,64.50
2018-01-16T18:32:50.048Z,64.30
2018-01-16T18:35:18.068Z,64.40
2018-01-16T18:37:46.630Z,64.40
2018-01-16T18:40:14.318Z,64.60
2018-01-16T18:42:41.902Z,65.00
2018-01-16T18:45:09.484Z,65.10
2018-01-16T18:47:37.042Z,65.20
2018-01-16T18:50:04.798Z,65.20
2018-01-16T18:52:32.358Z,65.40
2018-01-16T18:54:59.934Z,65.90
2018-01-16T18:57:27.469Z,66.00
2018-01-16T18:59:55.069Z,66.20
2018-01-16T19:02:22.718Z,66.50
2018-01-16T19:04:50.320Z,66.70
2018-01-16T19:07:17.867Z,66.70
2018-01-16T19:09:45.427Z,66.80
2018-01-16T19:12:12.978Z,66.70
2018-01-16T19:14:40.563Z,66.90
2018-01-16T19:17:08.131Z,66.90
2018-01-16T19:19:35.795Z,67.10
2018-01-16T19:22:03.426Z,67.20
2018-01-16T19:24:31.021Z,67.30
2018-01-16T19:26:58.654Z,67.40
2018-01-16T19:29:26.226Z,67.40
2018-01-16T19:31:54.427Z,67.50
2018-01-16T19:34:22.026Z,67.70
2018-01-16T19:36:49.759Z,67.80
2018-01-16T19:39:17.318Z,68.10
2018-01-16T19:41:45.959Z,68.10
2018-01-16T19:44:13.558Z,68.30
2018-01-16T19:46:41.101Z,68.30
2018-01-16T19:49:08.662Z,68.50
2018-01-16T19:51:36.248Z,68.70
2018-01-16T19:54:03.805Z,68.90
2018-01-16T19:56:31.400Z,69.00
2018-01-16T19:58:59.543Z,69.20
2018-01-16T20:01:27.139Z,69.20
2018-01-16T20:03:54.696Z,69.20
2018-01-16T20:06:22.295Z,69.30
2018-01-16T20:08:50.274Z,69.40
2018-01-16T20:11:18.280Z,69.30
2018-01-16T20:13:45.865Z,69.30
2018-01-16T20:16:13.449Z,69.50
2018-01-16T20:18:41.087Z,69.50
2018-01-16T20:21:08.636Z,69.40
2018-01-16T20:23:36.217Z,69.20
2018-01-16T20:26:03.776Z,69.30
2018-01-16T20:28:31.322Z,69.00
2018-01-16T20:30:58.910Z,68.90
2018-01-16T20:33:26.463Z,69.00
2018-01-16T20:35:54.068Z,68.80
2018-01-16T20:38:21.607Z,69.00
2018-01-16T20:40:49.143Z,68.70
2018-01-16T20:43:16.966Z,68.80
2018-01-16T20:45:44.539Z,68.90
2018-01-16T20:48:12.479Z,68.60
2018-01-16T20:50:40.034Z,68.60
2018-01-16T20:53:07.598Z,68.50
2018-01-16T20:55:35.164Z,68.30
2018-01-16T20:58:02.764Z,68.20
2018-01-16T21:00:30.333Z,68.30
2018-01-16T21:02:58.296Z,68.00
2018-01-16T21:05:26.005Z,68.00
2018-01-16T21:07:53.578Z,68.00
2018-01-16T21:10:21.570Z,68.10
2018-01-16T21:12:49.221Z,67.80
2018-01-16T21:15:16.776Z,67.90
2018-01-16T21:17:44.315Z,67.90
2018-01-16T21:20:12.274Z,68.00
2018-01-16T21:22:40.345Z,67.80
2018-01-16T21:25:08.016Z,67.80
2018-01-16T21:27:35.612Z,68.10
2018-01-16T21:30:03.708Z,68.30
2018-01-16T21:32:31.266Z,68.20
2018-01-16T21:34:58.935Z,68.20
2018-01-16T21:37:26.530Z,68.10
2018-01-16T21:39:54.118Z,68.00
2018-01-16T21:42:21.679Z,67.90
2018-01-16T21:44:49.626Z,67.70
2018-01-16T21:47:17.220Z,67.70
2018-01-16T21:49:45.230Z,67.70
2018-01-16T21:52:12.828Z,67.70
2018-01-16T21:54:40.465Z,67.90
2018-01-16T21:57:08.042Z,67.90
2018-01-16T21:59:35.624Z,68.00
2018-01-16T22:02:03.507Z,68.10
2018-01-16T22:04:31.133Z,68.20
2018-01-16T22:06:58.927Z,68.30
2018-01-16T22:09:26.502Z,68.20
2018-01-16T22:11:54.101Z,68.10
2018-01-16T22:14:22.176Z,68.40
2018-01-16T22:16:50.178Z,68.40
2018-01-16T22:19:17.735Z,68.40
2018-01-16T22:21:45.270Z,68.50
2018-01-16T22:24:12.852Z,68.80
2018-01-16T22:26:40.920Z,69.20
2018-01-16T22:29:09.311Z,69.40
2018-01-16T22:31:37.319Z,69.40
2018-01-16T22:34:04.888Z,69.40
2018-01-16T22:36:32.475Z,69.40
2018-01-16T22:39:00.125Z,69.60
2018-01-16T22:41:27.727Z,69.50
2018-01-16T22:43:55.290Z,69.50
2018-01-16T22:46:23.323Z,69.80
2018-01-16T22:48:51.152Z,69.80
2018-01-16T22:51:19.323Z,69.70
2018-01-16T22:53:47.291Z,69.90
2018-01-16T22:56:15.276Z,69.70
2018-01-16T22:58:43.351Z,69.90
2018-01-16T23:01:11.323Z,69.80
2018-01-16T23:03:39.263Z,70.00
2018-01-16T23:06:06.923Z,70.00
2018-01-16T23:08:34.484Z,70.10
2018-01-16T23:11:02.069Z,70.10
2018-01-16T23:13:30.019Z,70.20
2018-01-16T23:15:57.601Z,70.20
2018-01-16T23:18:25.241Z,70.30
2018-01-16T23:20:52.810Z,70.20
2018-01-16T23:23:20.372Z,70.00
2018-01-16T23:25:48.118Z,69.80
2018-01-16T23:28:15.749Z,69.90
2018-01-16T23:30:45.085Z,70.10
2018-01-16T23:33:12.634Z,70.10
2018-01-16T23:35:40.268Z,70.30
2018-01-16T23:38:07.935Z,70.40
2018-01-16T23:40:35.493Z,70.30
2018-01-16T23:43:03.053Z,70.60
2018-01-16T23:45:30.632Z,70.70
2018-01-16T23:47:58.205Z,70.80
2018-01-16T23:50:26.137Z,71.20
2018-01-16T23:52:53.708Z,71.30
2018-01-16T23:55:21.488Z,71.50
2018-01-16T23:57:49.140Z,72.00
